Time;durP1;ratioP1;P1;durP2;ratioP2;P2;SDS_P1;SDS_P2;PMS_P1;PMS_P2;Temp;Humidity;BMP_temperature;BMP_pressure;BME280_temperature;BME280_humidity;BME280_pressure;Samples;Min_cycle;Max_cycle;Signal;HPM_P1;HPM_P2
2022/01/09 00:00:29;;;;;;;14.67;3.10;;;8.60;99.90;;;;;;5027669;28;20304;-22
2022/01/09 00:02:59;;;;;;;16.70;3.60;;;8.50;99.90;;;;;;5042802;28;20223;-23
2022/01/09 00:05:29;;;;;;;12.10;2.83;;;8.40;99.90;;;;;;5027832;28;20213;-22
2022/01/09 00:07:56;;;;;;;16.60;3.20;;;8.40;99.90;;;;;;5026667;28;20215;-22
2022/01/09 00:10:26;;;;;;;15.27;3.10;;;8.30;99.90;;;;;;5026105;28;20299;-22
2022/01/09 00:12:53;;;;;;;20.30;3.63;;;8.30;99.90;;;;;;5028218;28;20291;-22
2022/01/09 00:15:23;;;;;;;14.10;2.77;;;8.30;99.90;;;;;;5027617;28;20244;-22
2022/01/09 00:17:50;;;;;;;14.40;3.40;;;8.30;99.90;;;;;;5027456;28;20233;-22
2022/01/09 00:20:17;;;;;;;21.43;3.83;;;8.20;99.90;;;;;;5027866;28;20201;-22
2022/01/09 00:22:47;;;;;;;17.17;3.30;;;8.20;99.90;;;;;;5027580;28;20228;-22
2022/01/09 00:25:16;;;;;;;17.67;3.60;;;8.20;99.90;;;;;;5027662;28;20558;-22
2022/01/09 00:27:47;;;;;;;21.27;4.03;;;8.20;99.90;;;;;;5045030;28;20558;-22
2022/01/09 00:30:17;;;;;;;22.23;4.67;;;8.10;99.90;;;;;;5031639;28;20203;-22
2022/01/09 00:32:45;;;;;;;17.17;3.87;;;8.10;99.90;;;;;;5011473;28;20517;-31
2022/01/09 00:35:15;;;;;;;28.23;5.77;;;8.10;99.90;;;;;;5011827;28;20428;-22
2022/01/09 00:37:45;;;;;;;20.03;4.37;;;8.10;99.90;;;;;;5011591;28;20205;-22
2022/01/09 00:40:15;;;;;;;15.37;3.53;;;8.10;99.90;;;;;;5011485;28;20209;-22
2022/01/09 00:42:43;;;;;;;20.03;3.90;;;8.10;99.90;;;;;;5027796;28;20232;-22
2022/01/09 00:45:15;;;;;;;15.57;3.33;;;8.10;99.90;;;;;;5031755;28;20200;-22
2022/01/09 00:47:44;;;;;;;19.13;4.00;;;8.10;99.90;;;;;;5030743;28;20581;-22
2022/01/09 00:50:13;;;;;;;16.10;3.80;;;8.10;99.90;;;;;;5031216;28;20240;-22
2022/01/09 00:52:40;;;;;;;16.83;3.20;;;8.10;99.90;;;;;;5031559;28;20209;-22
2022/01/09 00:55:10;;;;;;;25.63;4.73;;;8.10;99.90;;;;;;5031290;28;20246;-22
2022/01/09 00:57:40;;;;;;;15.97;3.30;;;8.10;99.90;;;;;;5031225;28;20205;-22
2022/01/09 01:00:08;;;;;;;20.27;3.93;;;8.10;99.90;;;;;;5029877;28;20275;-22
2022/01/09 01:02:38;;;;;;;18.27;3.93;;;8.10;99.90;;;;;;5016488;28;20224;-22
2022/01/09 01:05:11;;;;;;;23.43;4.20;;;8.10;99.90;;;;;;5011635;28;20209;-22
2022/01/09 01:07:39;;;;;;;20.70;4.10;;;8.20;99.90;;;;;;5042920;28;20201;-22
2022/01/09 01:10:12;;;;;;;20.47;4.00;;;8.20;99.90;;;;;;5010890;28;20217;-22
2022/01/09 01:12:39;;;;;;;18.60;4.80;;;8.20;99.90;;;;;;5011286;28;20202;-22
2022/01/09 01:15:07;;;;;;;22.93;4.60;;;8.10;99.90;;;;;;5014554;28;20215;-22
2022/01/09 01:17:35;;;;;;;20.90;4.43;;;8.20;99.90;;;;;;5030024;28;20231;-22
2022/01/09 01:20:04;;;;;;;20.03;4.30;;;8.20;99.90;;;;;;5031214;28;20291;-22
2022/01/09 01:22:34;;;;;;;21.77;5.77;;;8.20;99.90;;;;;;5030735;28;20228;-22
2022/01/09 01:25:04;;;;;;;22.40;4.33;;;8.20;99.90;;;;;;5029635;28;20201;-22
2022/01/09 01:27:32;;;;;;;28.37;4.60;;;8.20;99.90;;;;;;5030654;28;20278;-22
2022/01/09 01:30:00;;;;;;;22.33;4.63;;;8.20;99.90;;;;;;5030767;28;20684;-22
2022/01/09 01:32:32;;;;;;;21.07;3.97;;;8.20;99.90;;;;;;5044545;28;20208;-22
2022/01/09 01:34:59;;;;;;;26.00;5.60;;;8.20;99.90;;;;;;5029389;28;20677;-22
2022/01/09 01:37:27;;;;;;;24.70;4.80;;;8.20;99.90;;;;;;5030637;28;20578;-22
2022/01/09 01:39:54;;;;;;;19.77;4.17;;;8.20;99.90;;;;;;5029393;28;20691;-22
2022/01/09 01:42:24;;;;;;;23.33;4.47;;;8.20;99.90;;;;;;5029773;28;20201;-22
2022/01/09 01:44:53;;;;;;;19.53;4.83;;;8.20;99.90;;;;;;5030250;28;20585;-22
2022/01/09 01:47:21;;;;;;;22.70;5.00;;;8.20;99.90;;;;;;5029427;28;20197;-22
2022/01/09 01:49:51;;;;;;;21.70;4.30;;;8.20;99.90;;;;;;5029883;28;20731;-22
2022/01/09 01:52:30;;;;;;;17.67;4.30;;;8.20;99.90;;;;;;5030052;28;20209;-22
2022/01/09 01:54:57;;;;;;;22.43;4.27;;;8.20;99.90;;;;;;5028747;28;20197;-22
2022/01/09 01:57:25;;;;;;;20.47;3.63;;;8.20;99.90;;;;;;5029498;28;20193;-22
2022/01/09 01:59:52;;;;;;;13.07;2.97;;;8.20;99.90;;;;;;5028200;28;20201;-22
2022/01/09 02:02:19;;;;;;;15.63;2.60;;;8.20;99.90;;;;;;5017138;28;20221;-22
2022/01/09 02:04:51;;;;;;;10.17;2.83;;;8.10;99.90;;;;;;5023754;28;20293;-22
2022/01/09 02:07:19;;;;;;;13.03;2.53;;;8.10;99.90;;;;;;5023076;28;20208;-22
2022/01/09 02:09:46;;;;;;;11.97;3.13;;;8.10;99.90;;;;;;5061159;28;20196;-22
2022/01/09 02:12:13;;;;;;;13.37;3.10;;;8.00;99.90;;;;;;5029269;28;20642;-22
2022/01/09 02:14:44;;;;;;;18.37;3.20;;;8.00;99.90;;;;;;5029491;28;20204;-22
2022/01/09 02:17:17;;;;;;;14.10;3.33;;;8.00;99.90;;;;;;5028706;28;20201;-22
2022/01/09 02:19:54;;;;;;;16.67;3.67;;;8.00;99.90;;;;;;5029489;28;20216;-22
2022/01/09 02:22:24;;;;;;;14.80;3.37;;;8.00;99.90;;;;;;5017193;28;20245;-22
2022/01/09 02:24:52;;;;;;;17.37;3.43;;;8.00;99.90;;;;;;5029084;28;20205;-22
2022/01/09 02:27:19;;;;;;;18.57;4.30;;;7.90;99.90;;;;;;5028816;28;20205;-22
2022/01/09 02:29:49;;;;;;;17.43;3.70;;;7.90;99.90;;;;;;5029376;28;20588;-22
2022/01/09 02:32:19;;;;;;;19.23;3.87;;;7.90;99.90;;;;;;5028412;28;20205;-23
2022/01/09 02:34:47;;;;;;;18.07;3.77;;;8.00;99.90;;;;;;5029787;28;20197;-22
2022/01/09 02:37:17;;;;;;;19.37;3.40;;;8.00;99.90;;;;;;5029141;28;20663;-22
2022/01/09 02:39:48;;;;;;;20.20;4.20;;;8.00;99.90;;;;;;5060942;28;20274;-22
2022/01/09 02:42:28;;;;;;;15.13;3.10;;;8.00;99.90;;;;;;5009158;28;20197;-22
2022/01/09 02:44:56;;;;;;;18.13;3.37;;;8.00;99.90;;;;;;5040271;28;20204;-22
2022/01/09 02:47:25;;;;;;;18.73;4.00;;;8.00;99.90;;;;;;5008411;28;20218;-22
2022/01/09 02:49:56;;;;;;;15.93;4.30;;;8.00;99.90;;;;;;5008933;28;20241;-22
2022/01/09 02:52:35;;;;;;;17.90;3.47;;;8.00;99.90;;;;;;5007839;28;20236;-22
2022/01/09 02:55:14;;;;;;;18.47;3.80;;;8.00;99.90;;;;;;5009557;28;20209;-22
2022/01/09 02:57:51;;;;;;;14.47;4.20;;;8.00;99.90;;;;;;5017661;28;20197;-22
2022/01/09 03:00:22;;;;;;;16.70;3.33;;;8.00;99.90;;;;;;5029091;28;20683;-22
2022/01/09 03:02:49;;;;;;;17.23;4.17;;;8.00;99.90;;;;;;5028243;28;20228;-22
2022/01/09 03:05:17;;;;;;;15.27;3.50;;;8.00;99.90;;;;;;5028572;28;20667;-22
2022/01/09 03:07:47;;;;;;;16.80;3.13;;;8.00;99.90;;;;;;5028700;28;20690;-22
2022/01/09 03:10:18;;;;;;;14.47;3.73;;;7.90;99.90;;;;;;5028314;28;20201;-22
2022/01/09 03:12:49;;;;;;;17.00;3.07;;;8.00;99.90;;;;;;5028962;28;20239;-22
2022/01/09 03:15:18;;;;;;;16.37;3.07;;;8.00;99.90;;;;;;5028444;28;20205;-22
2022/01/09 03:17:46;;;;;;;17.37;3.17;;;7.90;99.90;;;;;;5028056;28;20201;-22
2022/01/09 03:20:22;;;;;;;16.23;3.70;;;7.90;99.90;;;;;;5028842;28;20197;-22
2022/01/09 03:22:49;;;;;;;14.40;2.77;;;8.00;99.90;;;;;;5026974;28;20294;-22
2022/01/09 03:25:19;;;;;;;13.23;3.23;;;8.00;99.90;;;;;;5028683;28;20556;-22
2022/01/09 03:27:50;;;;;;;13.23;3.30;;;7.90;99.90;;;;;;5028786;28;20193;-22
2022/01/09 03:30:19;;;;;;;16.50;3.00;;;7.90;99.90;;;;;;5020373;28;20228;-22
2022/01/09 03:32:50;;;;;;;15.40;2.50;;;7.90;99.90;;;;;;5024768;28;20211;-22
2022/01/09 03:35:20;;;;;;;12.33;2.53;;;7.90;99.90;;;;;;5028909;28;20200;-22
2022/01/09 03:37:48;;;;;;;11.67;2.70;;;7.90;99.90;;;;;;5028791;28;20212;-22
2022/01/09 03:40:19;;;;;;;13.17;3.03;;;7.90;99.90;;;;;;5028214;28;20205;-22
2022/01/09 03:42:51;;;;;;;15.50;2.83;;;7.90;99.90;;;;;;5027029;28;20193;-22
2022/01/09 03:45:20;;;;;;;14.60;2.77;;;7.80;99.90;;;;;;5042984;28;20213;-22
2022/01/09 03:47:49;;;;;;;11.50;3.20;;;7.80;99.90;;;;;;5025962;28;20224;-22
2022/01/09 03:50:19;;;;;;;13.90;2.80;;;7.80;99.90;;;;;;5008103;28;20256;-22
2022/01/09 03:52:50;;;;;;;15.10;2.80;;;7.80;99.90;;;;;;5008134;28;20256;-22
2022/01/09 03:55:19;;;;;;;15.13;3.40;;;7.80;99.90;;;;;;5007929;28;20210;-22
2022/01/09 03:57:49;;;;;;;16.27;3.73;;;7.80;99.90;;;;;;5008170;28;20284;-22
2022/01/09 04:00:19;;;;;;;13.93;2.60;;;7.70;99.90;;;;;;5008277;28;20202;-22
2022/01/09 04:02:50;;;;;;;13.63;3.10;;;7.70;99.90;;;;;;5007023;28;20284;-23
2022/01/09 04:05:18;;;;;;;14.63;3.00;;;7.70;99.90;;;;;;5027563;28;20235;-22
2022/01/09 04:07:49;;;;;;;14.50;2.50;;;7.70;99.90;;;;;;5027791;28;20203;-22
2022/01/09 04:10:41;;;;;;;16.40;3.33;;;7.70;99.90;;;;;;5026244;28;20576;-22
2022/01/09 04:13:14;;;;;;;12.70;2.50;;;7.60;99.90;;;;;;5026600;28;20576;-22
2022/01/09 04:15:50;;;;;;;13.57;2.97;;;7.60;99.90;;;;;;5026711;28;20588;-22
2022/01/09 04:18:22;;;;;;;16.10;2.93;;;7.60;99.90;;;;;;5026600;28;20215;-22
2022/01/09 04:20:52;;;;;;;15.57;2.43;;;7.60;99.90;;;;;;5026469;28;20443;-22
2022/01/09 04:23:20;;;;;;;13.43;2.43;;;7.60;99.90;;;;;;5027601;28;20328;-23
2022/01/09 04:25:48;;;;;;;15.20;3.23;;;7.60;99.90;;;;;;5025769;28;20555;-22
2022/01/09 04:28:16;;;;;;;14.90;2.80;;;7.60;99.90;;;;;;5027592;28;20214;-22
2022/01/09 04:30:44;;;;;;;10.17;2.60;;;7.60;99.90;;;;;;5026920;28;20664;-25
2022/01/09 04:33:11;;;;;;;16.80;3.30;;;7.50;99.90;;;;;;5027784;28;20229;-24
2022/01/09 04:35:40;;;;;;;16.37;2.83;;;7.50;99.90;;;;;;5027296;28;20657;-25
2022/01/09 04:38:07;;;;;;;11.80;2.37;;;7.50;99.90;;;;;;5027631;28;20207;-24
2022/01/09 04:40:35;;;;;;;17.97;2.60;;;7.50;99.90;;;;;;5058278;28;20234;-25
2022/01/09 04:43:06;;;;;;;11.53;2.53;;;7.60;99.90;;;;;;5027511;28;20212;-25
2022/01/09 04:45:35;;;;;;;13.90;2.50;;;7.50;99.90;;;;;;5027198;28;20312;-24
2022/01/09 04:48:06;;;;;;;11.53;2.30;;;7.50;99.90;;;;;;5027543;28;20224;-25
2022/01/09 04:50:36;;;;;;;12.47;2.60;;;7.40;99.90;;;;;;5027196;28;20250;-25
2022/01/09 04:53:06;;;;;;;10.80;2.70;;;7.40;99.90;;;;;;5042219;28;20205;-24
2022/01/09 04:55:40;;;;;;;9.90;2.40;;;7.40;99.90;;;;;;5025397;28;20683;-24
2022/01/09 04:58:09;;;;;;;14.47;2.70;;;7.50;99.90;;;;;;5027308;28;20262;-24
2022/01/09 05:00:41;;;;;;;12.20;2.20;;;7.40;99.90;;;;;;5025143;28;20209;-25
2022/01/09 05:03:10;;;;;;;14.87;2.77;;;7.50;99.90;;;;;;5015862;28;20205;-25
2022/01/09 05:05:40;;;;;;;11.80;2.17;;;7.50;99.90;;;;;;5007211;28;20205;-25
2022/01/09 05:08:07;;;;;;;13.87;4.17;;;7.50;99.90;;;;;;5022519;28;20202;-24
2022/01/09 05:10:35;;;;;;;14.70;2.50;;;7.50;99.90;;;;;;5006945;28;20206;-25
2022/01/09 05:13:07;;;;;;;13.13;2.43;;;7.50;99.90;;;;;;5011778;28;21229;-24
2022/01/09 05:15:36;;;;;;;13.53;2.30;;;7.50;99.90;;;;;;5030637;28;20263;-24
2022/01/09 05:18:11;;;;;;;13.03;2.47;;;7.50;99.90;;;;;;5030787;28;20221;-24
2022/01/09 05:20:39;;;;;;;16.20;2.80;;;7.50;99.90;;;;;;5030687;28;20208;-24
2022/01/09 05:23:06;;;;;;;15.27;2.60;;;7.50;99.90;;;;;;5030777;28;20718;-25
2022/01/09 05:25:33;;;;;;;10.93;2.33;;;7.50;99.90;;;;;;5030472;28;20641;-25
2022/01/09 05:28:01;;;;;;;10.70;2.40;;;7.50;99.90;;;;;;5030781;28;20207;-25
2022/01/09 05:30:29;;;;;;;11.83;2.70;;;7.50;99.90;;;;;;5030156;28;20212;-24
2022/01/09 05:32:56;;;;;;;10.03;2.27;;;7.50;99.90;;;;;;5028703;28;20214;-25
2022/01/09 05:35:25;;;;;;;12.87;2.47;;;7.50;99.90;;;;;;5030282;28;20223;-25
2022/01/09 05:37:54;;;;;;;15.27;2.10;;;7.50;99.90;;;;;;5029011;28;20201;-24
2022/01/09 05:40:21;;;;;;;15.33;2.47;;;7.50;99.90;;;;;;5030039;28;20208;-25
2022/01/09 05:42:48;;;;;;;12.00;2.30;;;7.50;99.90;;;;;;5030408;28;20323;-25
2022/01/09 05:45:18;;;;;;;9.87;2.60;;;7.50;99.90;;;;;;5061343;28;20221;-25
2022/01/09 05:47:46;;;;;;;9.60;2.30;;;7.50;99.90;;;;;;5029489;28;20217;-25
2022/01/09 05:50:15;;;;;;;12.80;2.10;;;7.50;99.90;;;;;;5030463;28;20322;-25
2022/01/09 05:52:43;;;;;;;9.50;2.07;;;7.50;99.90;;;;;;5061715;28;20232;-25
2022/01/09 05:55:10;;;;;;;8.03;2.00;;;7.50;99.90;;;;;;5030185;28;20713;-25
2022/01/09 05:57:37;;;;;;;12.17;2.30;;;7.50;99.90;;;;;;5029759;28;20711;-24
2022/01/09 06:00:05;;;;;;;13.17;2.47;;;7.50;99.90;;;;;;5030259;28;20589;-25
2022/01/09 06:02:33;;;;;;;10.27;2.23;;;7.40;99.90;;;;;;5024250;28;20206;-25
2022/01/09 06:05:00;;;;;;;7.70;1.90;;;7.40;99.90;;;;;;5020743;28;20693;-24
2022/01/09 06:07:27;;;;;;;10.40;2.20;;;7.40;99.90;;;;;;5029708;28;20231;-24
2022/01/09 06:09:57;;;;;;;10.87;2.20;;;7.40;99.90;;;;;;5030038;28;20212;-24
2022/01/09 06:12:24;;;;;;;11.77;2.30;;;7.40;99.90;;;;;;5044308;28;20220;-31
2022/01/09 06:14:53;;;;;;;11.67;2.57;;;7.40;99.90;;;;;;5029951;28;20211;-25
2022/01/09 06:17:24;;;;;;;10.80;2.70;;;7.40;99.90;;;;;;5028838;28;20217;-24
2022/01/09 06:19:52;;;;;;;12.23;2.63;;;7.40;99.90;;;;;;5044925;28;20204;-25
2022/01/09 06:22:20;;;;;;;15.23;2.53;;;7.40;99.90;;;;;;5029305;28;20216;-25
2022/01/09 06:24:53;;;;;;;10.20;2.43;;;7.40;99.90;;;;;;5028652;28;20228;-25
2022/01/09 06:27:21;;;;;;;7.53;2.13;;;7.40;99.90;;;;;;5028980;28;20684;-25
2022/01/09 06:29:48;;;;;;;8.70;2.20;;;7.30;99.90;;;;;;5028073;28;20567;-24
2022/01/09 06:32:16;;;;;;;9.97;1.90;;;7.30;99.90;;;;;;5028684;28;20201;-22
2022/01/09 06:34:43;;;;;;;8.90;2.20;;;7.30;99.90;;;;;;5029382;28;20221;-22
2022/01/09 06:37:16;;;;;;;10.90;2.40;;;7.30;99.90;;;;;;5029508;28;20694;-22
2022/01/09 06:39:44;;;;;;;6.67;2.00;;;7.30;99.90;;;;;;5029237;28;20212;-22
2022/01/09 06:42:14;;;;;;;8.57;2.30;;;7.30;99.90;;;;;;5029163;28;20197;-22
2022/01/09 06:44:41;;;;;;;10.63;2.40;;;7.30;99.90;;;;;;5029421;28;20659;-22
2022/01/09 06:47:09;;;;;;;11.03;2.67;;;7.30;99.90;;;;;;5059675;28;20196;-22
2022/01/09 06:49:38;;;;;;;8.87;2.77;;;7.30;99.90;;;;;;5028986;28;20256;-23
2022/01/09 06:52:05;;;;;;;9.53;2.30;;;7.30;99.90;;;;;;5029152;28;20604;-22
2022/01/09 06:54:33;;;;;;;8.60;2.17;;;7.30;99.90;;;;;;5028974;28;20201;-22
2022/01/09 06:57:02;;;;;;;10.90;2.20;;;7.20;99.90;;;;;;5028382;28;20730;-22
2022/01/09 06:59:30;;;;;;;10.33;2.93;;;7.20;99.90;;;;;;5027782;28;20255;-22
2022/01/09 07:01:59;;;;;;;11.57;2.80;;;7.20;99.90;;;;;;5026223;28;20231;-22
2022/01/09 07:04:30;;;;;;;8.13;2.37;;;7.20;99.90;;;;;;5008935;28;20232;-22
2022/01/09 07:06:57;;;;;;;9.60;2.77;;;7.10;99.90;;;;;;5008902;28;20201;-22
2022/01/09 07:09:24;;;;;;;10.50;2.63;;;7.10;99.90;;;;;;5023644;28;20696;-22
2022/01/09 07:11:54;;;;;;;9.07;2.20;;;7.10;99.90;;;;;;5009740;28;20774;-22
2022/01/09 07:14:21;;;;;;;7.60;2.40;;;7.00;99.90;;;;;;5028759;28;20770;-22
2022/01/09 07:16:49;;;;;;;12.27;2.87;;;7.00;99.90;;;;;;5028247;28;20594;-25
2022/01/09 07:19:16;;;;;;;12.60;2.40;;;7.00;99.90;;;;;;5028933;28;20224;-25
2022/01/09 07:21:43;;;;;;;12.33;2.17;;;7.00;99.90;;;;;;5028566;28;20200;-25
2022/01/09 07:24:13;;;;;;;15.60;2.90;;;6.90;99.90;;;;;;5028498;28;20316;-25
2022/01/09 07:26:40;;;;;;;7.60;2.13;;;6.90;99.90;;;;;;5028140;28;20200;-25
2022/01/09 07:29:07;;;;;;;9.77;2.60;;;6.90;99.90;;;;;;5028438;28;20246;-25
2022/01/09 07:31:34;;;;;;;7.90;2.17;;;6.90;99.90;;;;;;5027189;28;20731;-24
2022/01/09 07:34:02;;;;;;;10.70;2.40;;;6.90;99.90;;;;;;5028414;28;20219;-25
2022/01/09 07:36:29;;;;;;;12.00;2.60;;;6.90;99.90;;;;;;5028270;28;20232;-25
2022/01/09 07:38:58;;;;;;;10.30;2.47;;;6.90;99.90;;;;;;5028381;28;20246;-25
2022/01/09 07:41:28;;;;;;;6.70;2.00;;;6.90;99.90;;;;;;5027507;28;20295;-25
2022/01/09 07:43:55;;;;;;;9.50;2.00;;;6.90;99.90;;;;;;5027921;28;20217;-25
2022/01/09 07:46:22;;;;;;;10.33;2.07;;;6.90;99.90;;;;;;5027133;28;20209;-25
2022/01/09 07:48:50;;;;;;;11.03;1.73;;;6.90;99.90;;;;;;5028389;28;20571;-25
2022/01/09 07:51:17;;;;;;;8.93;2.50;;;6.90;99.90;;;;;;5027854;28;20327;-25
2022/01/09 07:53:44;;;;;;;7.00;1.83;;;6.90;99.90;;;;;;5028298;28;20641;-25
2022/01/09 07:56:14;;;;;;;9.77;1.93;;;6.90;99.90;;;;;;5028057;28;20737;-25
2022/01/09 07:58:41;;;;;;;11.40;2.37;;;7.00;99.90;;;;;;5027872;28;20193;-25
2022/01/09 08:01:11;;;;;;;8.43;1.93;;;7.00;99.90;;;;;;5027229;28;20193;-25
2022/01/09 08:03:38;;;;;;;11.93;2.03;;;7.00;99.90;;;;;;5059265;28;20204;-25
2022/01/09 08:06:07;;;;;;;10.97;2.50;;;7.00;99.90;;;;;;5027534;28;20232;-25
2022/01/09 08:08:35;;;;;;;8.03;2.40;;;7.00;99.90;;;;;;5027889;28;20224;-25
2022/01/09 08:11:02;;;;;;;9.17;1.90;;;7.00;99.90;;;;;;5027169;28;20215;-25
2022/01/09 08:13:31;;;;;;;7.63;2.27;;;7.00;99.90;;;;;;5026476;28;20207;-24
2022/01/09 08:15:59;;;;;;;7.83;2.20;;;7.10;99.90;;;;;;5027049;28;20215;-25
2022/01/09 08:18:26;;;;;;;11.03;2.10;;;7.10;99.90;;;;;;5028165;28;20850;-24
2022/01/09 08:20:53;;;;;;;7.87;2.03;;;7.10;99.90;;;;;;5027620;28;20217;-25
2022/01/09 08:23:20;;;;;;;11.43;2.23;;;7.10;99.90;;;;;;5027726;28;20656;-25
2022/01/09 08:25:52;;;;;;;10.00;2.70;;;7.10;99.90;;;;;;5027361;28;20223;-25
2022/01/09 08:28:20;;;;;;;9.00;2.03;;;7.10;99.90;;;;;;5026453;28;20263;-24
2022/01/09 08:30:52;;;;;;;7.23;2.30;;;7.10;99.90;;;;;;5026844;28;20225;-25
2022/01/09 08:33:24;;;;;;;9.67;2.20;;;7.20;99.90;;;;;;5022580;28;20221;-25
2022/01/09 08:35:51;;;;;;;8.40;2.07;;;7.20;99.90;;;;;;5007840;28;20212;-25
2022/01/09 08:38:21;;;;;;;6.87;1.70;;;7.20;99.90;;;;;;5021258;28;20235;-25
2022/01/09 08:40:49;;;;;;;15.33;2.43;;;7.20;99.90;;;;;;5058609;28;20197;-24
2022/01/09 08:43:16;;;;;;;9.40;2.20;;;7.20;99.90;;;;;;5026103;28;20659;-25
2022/01/09 08:45:43;;;;;;;7.43;2.70;;;7.20;99.90;;;;;;5026429;28;20220;-24
2022/01/09 08:48:14;;;;;;;11.00;2.13;;;7.20;99.90;;;;;;5028999;28;20641;-24
2022/01/09 08:50:44;;;;;;;8.97;2.30;;;7.20;99.90;;;;;;5030969;28;20331;-25
2022/01/09 08:53:15;;;;;;;11.20;2.30;;;7.30;99.90;;;;;;5031496;28;20640;-25
2022/01/09 08:55:42;;;;;;;8.77;1.80;;;7.30;99.90;;;;;;5030684;28;20599;-25
2022/01/09 08:58:09;;;;;;;12.33;2.63;;;7.20;99.90;;;;;;5031335;28;20569;-25
2022/01/09 09:00:37;;;;;;;6.90;1.93;;;7.30;99.90;;;;;;5030332;28;20211;-25
2022/01/09 09:03:04;;;;;;;11.13;2.60;;;7.20;99.90;;;;;;5026493;28;20205;-24
2022/01/09 09:05:32;;;;;;;11.33;2.67;;;7.20;99.90;;;;;;5011325;28;20810;-25
2022/01/09 09:07:59;;;;;;;8.00;1.90;;;7.20;99.90;;;;;;5011522;28;20320;-25
2022/01/09 09:10:26;;;;;;;11.70;2.43;;;7.20;99.90;;;;;;5010911;28;20676;-25
2022/01/09 09:12:54;;;;;;;13.17;2.30;;;7.30;99.90;;;;;;5029067;28;20232;-25
2022/01/09 09:15:22;;;;;;;8.43;2.40;;;7.30;99.90;;;;;;5030949;28;20283;-25
2022/01/09 09:17:53;;;;;;;13.07;2.77;;;7.30;99.90;;;;;;5030649;28;20205;-25
2022/01/09 09:20:21;;;;;;;7.10;2.20;;;7.30;99.90;;;;;;5030711;28;20204;-25
2022/01/09 09:22:49;;;;;;;11.80;2.80;;;7.30;99.90;;;;;;5029357;28;20224;-25
2022/01/09 09:25:17;;;;;;;12.07;2.70;;;7.30;99.90;;;;;;5030431;28;20256;-24
2022/01/09 09:27:47;;;;;;;13.57;2.47;;;7.30;99.90;;;;;;5030711;28;20205;-25
2022/01/09 09:30:14;;;;;;;5.57;2.40;;;7.40;99.90;;;;;;5030726;28;20213;-23
2022/01/09 09:32:43;;;;;;;12.87;2.47;;;7.40;99.90;;;;;;5030489;28;20623;-22
2022/01/09 09:35:11;;;;;;;10.97;3.07;;;7.40;99.90;;;;;;5031065;28;20208;-22
2022/01/09 09:37:39;;;;;;;9.30;2.13;;;7.40;99.90;;;;;;5030805;28;20221;-22
2022/01/09 09:40:08;;;;;;;9.67;2.20;;;7.30;99.90;;;;;;5030245;28;20228;-22
2022/01/09 09:42:35;;;;;;;10.10;2.43;;;7.30;99.90;;;;;;5028891;28;20625;-22
2022/01/09 09:45:05;;;;;;;9.30;2.67;;;7.30;99.90;;;;;;5030424;28;20229;-22
2022/01/09 09:47:33;;;;;;;12.07;2.70;;;7.30;99.90;;;;;;5030160;28;20266;-22
2022/01/09 09:50:03;;;;;;;10.97;2.40;;;7.30;99.90;;;;;;5029499;28;20232;-23
2022/01/09 09:52:30;;;;;;;8.07;2.60;;;7.30;99.90;;;;;;5030729;28;20215;-22
2022/01/09 09:55:04;;;;;;;7.17;1.80;;;7.30;99.90;;;;;;5030630;28;20307;-22
2022/01/09 09:57:34;;;;;;;13.20;2.60;;;7.30;99.90;;;;;;5046139;28;20741;-22
2022/01/09 10:00:09;;;;;;;10.13;2.63;;;7.30;99.90;;;;;;5044734;28;20212;-22
2022/01/09 10:02:51;;;;;;;10.00;2.40;;;7.40;99.90;;;;;;5029605;28;20196;-22
2022/01/09 10:05:23;;;;;;;10.23;2.50;;;7.40;99.90;;;;;;5010733;28;20601;-22
2022/01/09 10:08:03;;;;;;;12.80;2.60;;;7.40;99.90;;;;;;5009275;28;20193;-22
2022/01/09 10:10:34;;;;;;;10.73;2.37;;;7.40;99.90;;;;;;5010212;28;20268;-22
2022/01/09 10:13:12;;;;;;;11.47;2.53;;;7.40;99.90;;;;;;5009383;28;20210;-22
2022/01/09 10:15:51;;;;;;;8.07;2.40;;;7.40;99.90;;;;;;5024313;28;20224;-22
2022/01/09 10:18:42;;;;;;;10.57;2.33;;;7.40;99.90;;;;;;5009857;28;20229;-22
2022/01/09 10:21:18;;;;;;;10.27;2.30;;;7.40;99.90;;;;;;5029654;28;20232;-22
2022/01/09 10:23:57;;;;;;;6.70;2.13;;;7.50;99.90;;;;;;5030731;28;20685;-22
2022/01/09 10:26:25;;;;;;;10.13;2.30;;;7.50;99.90;;;;;;5029364;28;20588;-22
2022/01/09 10:28:53;;;;;;;10.73;2.50;;;7.50;99.90;;;;;;5030417;28;20334;-22
2022/01/09 10:31:23;;;;;;;13.13;2.20;;;7.50;99.90;;;;;;5027686;28;20627;-22
2022/01/09 10:34:06;;;;;;;8.90;2.37;;;7.60;99.90;;;;;;5029997;28;20275;-22
2022/01/09 10:36:42;;;;;;;13.47;2.30;;;7.60;99.90;;;;;;5015328;28;20225;-22
2022/01/09 10:39:18;;;;;;;10.43;2.73;;;7.60;99.90;;;;;;5044881;28;20196;-22
2022/01/09 10:41:58;;;;;;;11.40;2.40;;;7.70;99.90;;;;;;5027947;28;20620;-22
2022/01/09 10:44:32;;;;;;;11.30;2.00;;;7.70;99.90;;;;;;5028475;28;20196;-22
2022/01/09 10:47:02;;;;;;;12.60;2.70;;;7.70;99.90;;;;;;5028474;28;20224;-22
2022/01/09 10:49:50;;;;;;;16.47;2.30;;;7.70;99.90;;;;;;5028923;28;20229;-22
2022/01/09 10:52:26;;;;;;;11.43;2.53;;;7.70;99.90;;;;;;5011338;28;20754;-22
2022/01/09 10:55:05;;;;;;;13.53;2.73;;;7.70;99.90;;;;;;5029351;28;20587;-22
2022/01/09 10:57:37;;;;;;;6.67;2.53;;;7.80;99.90;;;;;;5011248;28;20211;-22
2022/01/09 11:00:05;;;;;;;8.53;1.90;;;7.80;99.90;;;;;;5029061;28;20715;-22
2022/01/09 11:02:32;;;;;;;12.43;3.33;;;7.80;99.90;;;;;;5028296;28;20213;-22
2022/01/09 11:04:59;;;;;;;10.97;2.77;;;7.80;99.90;;;;;;5028849;28;20217;-23
2022/01/09 11:07:27;;;;;;;14.53;2.57;;;7.80;99.90;;;;;;5028750;28;20201;-23
2022/01/09 11:09:56;;;;;;;11.90;2.60;;;7.90;99.90;;;;;;5028707;28;20205;-22
2022/01/09 11:12:26;;;;;;;13.77;2.63;;;7.90;99.90;;;;;;5059415;28;20201;-22
2022/01/09 11:14:59;;;;;;;11.33;2.70;;;7.90;99.90;;;;;;5028805;28;20204;-23
2022/01/09 11:17:28;;;;;;;14.87;2.63;;;7.90;99.90;;;;;;5028003;28;20204;-22
2022/01/09 11:19:57;;;;;;;13.77;3.83;;;7.90;99.90;;;;;;5028874;28;20212;-22
2022/01/09 11:22:30;;;;;;;12.53;3.13;;;7.90;99.90;;;;;;5028390;28;20220;-23
2022/01/09 11:25:06;;;;;;;17.33;2.77;;;8.00;99.90;;;;;;5026989;28;20237;-23
2022/01/09 11:27:52;;;;;;;10.77;2.87;;;8.00;99.90;;;;;;5028273;28;20255;-22
2022/01/09 11:30:25;;;;;;;9.43;2.53;;;8.00;99.90;;;;;;5028577;28;20243;-23
2022/01/09 11:32:58;;;;;;;10.00;2.47;;;8.00;99.90;;;;;;5027985;28;20203;-23
2022/01/09 11:35:42;;;;;;;11.27;2.23;;;8.00;99.90;;;;;;5027812;28;20243;-22
2022/01/09 11:38:20;;;;;;;9.43;2.77;;;8.00;99.90;;;;;;5028259;28;20546;-22
2022/01/09 11:40:48;;;;;;;9.03;2.73;;;8.00;99.90;;;;;;5026548;28;20291;-22
2022/01/09 11:43:17;;;;;;;9.53;2.43;;;8.10;99.90;;;;;;5059696;28;20551;-22
2022/01/09 11:45:48;;;;;;;11.73;3.13;;;8.10;99.90;;;;;;5026857;28;20239;-22
2022/01/09 11:48:37;;;;;;;10.30;2.27;;;8.10;99.90;;;;;;5028265;28;20205;-22
2022/01/09 11:51:07;;;;;;;12.03;3.00;;;8.10;99.90;;;;;;5027809;28;20573;-22
2022/01/09 11:54:03;;;;;;;11.33;2.40;;;8.10;99.90;;;;;;5028183;28;20635;-23
2022/01/09 11:57:06;;;;;;;13.43;2.77;;;8.20;99.90;;;;;;5026116;28;20205;-23
2022/01/09 11:59:40;;;;;;;9.63;2.80;;;8.20;99.90;;;;;;5028230;28;20251;-23
2022/01/09 12:02:11;;;;;;;6.50;2.27;;;8.20;99.90;;;;;;5026787;28;20225;-22
2022/01/09 12:04:42;;;;;;;10.73;2.83;;;8.20;99.90;;;;;;5027762;28;20304;-22
2022/01/09 12:07:16;;;;;;;13.47;2.80;;;8.20;99.90;;;;;;5042620;28;20234;-22
2022/01/09 12:09:51;;;;;;;13.27;2.77;;;8.20;99.90;;;;;;5027991;28;20196;-23
2022/01/09 12:12:23;;;;;;;12.97;3.20;;;8.20;99.90;;;;;;5027547;28;20228;-22
2022/01/09 12:14:54;;;;;;;9.80;2.70;;;8.20;99.90;;;;;;5027626;28;20216;-22
2022/01/09 12:17:22;;;;;;;13.37;2.80;;;8.20;99.90;;;;;;5026925;28;20205;-22
2022/01/09 12:20:22;;;;;;;11.07;3.00;;;8.30;99.90;;;;;;5027377;28;20498;-22
2022/01/09 12:23:01;;;;;;;12.03;3.10;;;8.30;99.90;;;;;;5026884;28;20273;-22
2022/01/09 12:25:29;;;;;;;12.20;2.83;;;8.30;99.90;;;;;;5026822;28;20220;-23
2022/01/09 12:28:17;;;;;;;11.97;2.93;;;8.30;99.90;;;;;;5027345;28;20243;-23
2022/01/09 12:30:49;;;;;;;14.23;3.23;;;8.40;99.90;;;;;;5026877;28;20221;-22
2022/01/09 12:33:27;;;;;;;13.00;2.60;;;8.40;99.90;;;;;;5027673;28;20208;-23
2022/01/09 12:35:57;;;;;;;13.70;2.90;;;8.40;99.90;;;;;;5020830;28;20233;-22
2022/01/09 12:38:29;;;;;;;10.63;2.87;;;8.40;99.90;;;;;;5025917;28;20203;-24
2022/01/09 12:41:08;;;;;;;9.23;2.77;;;8.40;99.90;;;;;;5027026;28;20455;-23
2022/01/09 12:43:39;;;;;;;11.43;2.33;;;8.50;99.90;;;;;;5026078;28;20213;-23
2022/01/09 12:46:09;;;;;;;11.10;2.60;;;8.50;99.90;;;;;;5026303;28;20221;-23
2022/01/09 12:48:37;;;;;;;13.77;2.63;;;8.50;99.90;;;;;;5027617;28;20205;-23
2022/01/09 12:51:14;;;;;;;11.00;2.73;;;8.50;99.90;;;;;;5027267;28;20267;-23
2022/01/09 12:53:52;;;;;;;8.57;2.10;;;8.50;99.90;;;;;;5027088;28;20213;-22
2022/01/09 12:56:22;;;;;;;15.37;3.13;;;8.50;99.90;;;;;;5026588;28;20204;-24
2022/01/09 12:58:58;;;;;;;10.93;3.00;;;8.50;99.90;;;;;;5027772;28;20209;-23
2022/01/09 13:01:36;;;;;;;11.70;2.87;;;8.50;99.90;;;;;;5026421;28;20208;-23
2022/01/09 13:04:18;;;;;;;12.33;2.50;;;8.50;99.90;;;;;;5027225;28;20215;-22